sensor_id;sensor_type;location;lat;lon;timestamp;P1;durP1;ratioP1;P2;durP2;ratioP2
5847;SDS011;8756;49.29324300;8.70599800;2023-04-10T00:02:25;22.50;;;13.10;;
5847;SDS011;8756;49.29324300;8.70599800;2023-04-10T00:04:50;22.40;;;12.87;;
5847;SDS011;8756;49.29324300;8.70599800;2023-04-10T00:07:16;20.80;;;11.87;;
5847;SDS011;8756;49.29324300;8.70599800;2023-04-10T00:09:42;20.83;;;11.57;;
5847;SDS011;8756;49.29324300;8.70599800;2023-04-10T00:12:07;23.07;;;12.30;;
5847;SDS011;8756;49.29324300;8.70599800;2023-04-10T00:14:35;25.10;;;13.67;;
5847;SDS011;8756;49.29324300;8.70599800;2023-04-10T00:17:01;22.10;;;12.47;;
5847;SDS011;8756;49.29324300;8.70599800;2023-04-10T00:19:27;22.93;;;13.77;;
5847;SDS011;8756;49.29324300;8.70599800;2023-04-10T00:21:52;23.93;;;13.43;;
5847;SDS011;8756;49.29324300;8.70599800;2023-04-10T00:24:19;23.20;;;12.50;;
5847;SDS011;8756;49.29324300;8.70599800;2023-04-10T00:26:45;21.10;;;12.50;;
5847;SDS011;8756;49.29324300;8.70599800;2023-04-10T00:29:11;23.07;;;12.73;;
5847;SDS011;8756;49.29324300;8.70599800;2023-04-10T00:31:36;24.67;;;14.50;;
5847;SDS011;8756;49.29324300;8.70599800;2023-04-10T00:34:02;23.20;;;13.20;;
5847;SDS011;8756;49.29324300;8.70599800;2023-04-10T00:36:28;22.07;;;12.73;;
5847;SDS011;8756;49.29324300;8.70599800;2023-04-10T00:38:53;25.17;;;13.37;;
5847;SDS011;8756;49.29324300;8.70599800;2023-04-10T00:41:19;24.90;;;13.60;;
5847;SDS011;8756;49.29324300;8.70599800;2023-04-10T00:43:45;22.90;;;12.87;;
5847;SDS011;8756;49.29324300;8.70599800;2023-04-10T00:46:10;24.00;;;12.67;;
5847;SDS011;8756;49.29324300;8.70599800;2023-04-10T00:48:37;22.67;;;13.63;;
5847;SDS011;8756;49.29324300;8.70599800;2023-04-10T00:51:03;23.17;;;12.50;;
5847;SDS011;8756;49.29324300;8.70599800;2023-04-10T00:53:30;24.13;;;13.67;;
5847;SDS011;8756;49.29324300;8.70599800;2023-04-10T00:55:56;21.90;;;12.43;;
5847;SDS011;8756;49.29324300;8.70599800;2023-04-10T00:58:23;24.17;;;12.20;;
5847;SDS011;8756;49.29324300;8.70599800;2023-04-10T01:00:50;23.20;;;13.00;;
5847;SDS011;8756;49.29324300;8.70599800;2023-04-10T01:03:16;23.60;;;12.87;;
5847;SDS011;8756;49.29324300;8.70599800;2023-04-10T01:05:46;24.00;;;13.07;;
5847;SDS011;8756;49.29324300;8.70599800;2023-04-10T01:08:35;21.20;;;12.70;;
5847;SDS011;8756;49.29324300;8.70599800;2023-04-10T01:11:13;23.80;;;12.87;;
5847;SDS011;8756;49.29324300;8.70599800;2023-04-10T01:13:52;25.10;;;13.50;;
5847;SDS011;8756;49.29324300;8.70599800;2023-04-10T01:16:55;22.33;;;12.23;;
5847;SDS011;8756;49.29324300;8.70599800;2023-04-10T01:22:33;23.43;;;12.67;;
5847;SDS011;8756;49.29324300;8.70599800;2023-04-10T01:25:18;22.63;;;13.57;;
5847;SDS011;8756;49.29324300;8.70599800;2023-04-10T01:30:46;23.80;;;13.10;;
5847;SDS011;8756;49.29324300;8.70599800;2023-04-10T01:33:20;21.67;;;13.10;;
5847;SDS011;8756;49.29324300;8.70599800;2023-04-10T01:35:54;24.90;;;13.20;;
5847;SDS011;8756;49.29324300;8.70599800;2023-04-10T01:38:22;23.87;;;13.43;;
5847;SDS011;8756;49.29324300;8.70599800;2023-04-10T01:40:52;23.53;;;13.30;;
5847;SDS011;8756;49.29324300;8.70599800;2023-04-10T01:43:19;22.20;;;11.90;;
5847;SDS011;8756;49.29324300;8.70599800;2023-04-10T01:45:47;21.63;;;13.00;;
5847;SDS011;8756;49.29324300;8.70599800;2023-04-10T01:48:15;22.00;;;12.17;;
5847;SDS011;8756;49.29324300;8.70599800;2023-04-10T01:50:42;23.37;;;13.50;;
5847;SDS011;8756;49.29324300;8.70599800;2023-04-10T01:53:10;23.67;;;12.93;;
5847;SDS011;8756;49.29324300;8.70599800;2023-04-10T01:55:37;21.10;;;12.50;;
5847;SDS011;8756;49.29324300;8.70599800;2023-04-10T01:58:03;21.33;;;12.10;;
5847;SDS011;8756;49.29324300;8.70599800;2023-04-10T02:00:36;20.60;;;11.03;;
5847;SDS011;8756;49.29324300;8.70599800;2023-04-10T02:03:06;23.63;;;12.53;;
5847;SDS011;8756;49.29324300;8.70599800;2023-04-10T02:05:33;20.07;;;11.77;;
5847;SDS011;8756;49.29324300;8.70599800;2023-04-10T02:08:22;25.87;;;14.20;;
5847;SDS011;8756;49.29324300;8.70599800;2023-04-10T02:11:01;25.83;;;13.83;;
5847;SDS011;8756;49.29324300;8.70599800;2023-04-10T02:13:35;23.60;;;12.70;;
5847;SDS011;8756;49.29324300;8.70599800;2023-04-10T02:16:06;21.57;;;11.33;;
5847;SDS011;8756;49.29324300;8.70599800;2023-04-10T02:18:33;21.97;;;13.47;;
5847;SDS011;8756;49.29324300;8.70599800;2023-04-10T02:21:01;23.30;;;11.87;;
5847;SDS011;8756;49.29324300;8.70599800;2023-04-10T02:23:27;22.47;;;13.60;;
5847;SDS011;8756;49.29324300;8.70599800;2023-04-10T02:25:53;22.93;;;12.97;;
5847;SDS011;8756;49.29324300;8.70599800;2023-04-10T02:28:21;26.10;;;13.60;;
5847;SDS011;8756;49.29324300;8.70599800;2023-04-10T02:30:46;23.93;;;13.30;;
5847;SDS011;8756;49.29324300;8.70599800;2023-04-10T02:33:12;24.53;;;14.50;;
5847;SDS011;8756;49.29324300;8.70599800;2023-04-10T02:35:38;24.60;;;13.53;;
5847;SDS011;8756;49.29324300;8.70599800;2023-04-10T02:38:03;23.90;;;13.50;;
5847;SDS011;8756;49.29324300;8.70599800;2023-04-10T02:40:29;23.87;;;13.60;;
5847;SDS011;8756;49.29324300;8.70599800;2023-04-10T02:42:55;23.17;;;12.80;;
5847;SDS011;8756;49.29324300;8.70599800;2023-04-10T02:45:20;25.60;;;13.53;;
5847;SDS011;8756;49.29324300;8.70599800;2023-04-10T02:47:46;24.50;;;14.23;;
5847;SDS011;8756;49.29324300;8.70599800;2023-04-10T02:50:11;23.67;;;13.40;;
5847;SDS011;8756;49.29324300;8.70599800;2023-04-10T02:52:37;26.20;;;13.80;;
5847;SDS011;8756;49.29324300;8.70599800;2023-04-10T02:55:03;25.00;;;14.83;;
5847;SDS011;8756;49.29324300;8.70599800;2023-04-10T02:57:30;24.20;;;13.33;;
5847;SDS011;8756;49.29324300;8.70599800;2023-04-10T02:59:56;24.23;;;14.27;;
5847;SDS011;8756;49.29324300;8.70599800;2023-04-10T03:02:22;25.23;;;14.90;;
5847;SDS011;8756;49.29324300;8.70599800;2023-04-10T03:04:47;25.53;;;14.00;;
5847;SDS011;8756;49.29324300;8.70599800;2023-04-10T03:07:13;25.90;;;14.40;;
5847;SDS011;8756;49.29324300;8.70599800;2023-04-10T03:09:41;23.70;;;13.90;;
5847;SDS011;8756;49.29324300;8.70599800;2023-04-10T03:12:07;25.53;;;14.00;;
5847;SDS011;8756;49.29324300;8.70599800;2023-04-10T03:14:32;27.53;;;14.40;;
5847;SDS011;8756;49.29324300;8.70599800;2023-04-10T03:16:58;23.80;;;14.00;;
5847;SDS011;8756;49.29324300;8.70599800;2023-04-10T03:19:24;28.30;;;16.87;;
5847;SDS011;8756;49.29324300;8.70599800;2023-04-10T03:21:50;25.50;;;12.97;;
5847;SDS011;8756;49.29324300;8.70599800;2023-04-10T03:24:16;25.53;;;13.80;;
5847;SDS011;8756;49.29324300;8.70599800;2023-04-10T03:26:42;25.80;;;13.93;;
5847;SDS011;8756;49.29324300;8.70599800;2023-04-10T03:29:07;25.73;;;14.33;;
5847;SDS011;8756;49.29324300;8.70599800;2023-04-10T03:31:33;24.33;;;13.80;;
5847;SDS011;8756;49.29324300;8.70599800;2023-04-10T03:33:58;25.93;;;14.17;;
5847;SDS011;8756;49.29324300;8.70599800;2023-04-10T03:36:24;24.27;;;12.50;;
5847;SDS011;8756;49.29324300;8.70599800;2023-04-10T03:38:51;28.57;;;14.93;;
5847;SDS011;8756;49.29324300;8.70599800;2023-04-10T03:41:16;24.90;;;13.43;;
5847;SDS011;8756;49.29324300;8.70599800;2023-04-10T03:43:42;25.03;;;13.80;;
5847;SDS011;8756;49.29324300;8.70599800;2023-04-10T03:46:08;27.77;;;14.37;;
5847;SDS011;8756;49.29324300;8.70599800;2023-04-10T03:48:33;23.70;;;14.10;;
5847;SDS011;8756;49.29324300;8.70599800;2023-04-10T03:50:59;27.23;;;14.53;;
5847;SDS011;8756;49.29324300;8.70599800;2023-04-10T03:53:28;24.67;;;14.23;;
5847;SDS011;8756;49.29324300;8.70599800;2023-04-10T03:55:53;24.57;;;13.37;;
5847;SDS011;8756;49.29324300;8.70599800;2023-04-10T03:58:19;27.27;;;14.20;;
5847;SDS011;8756;49.29324300;8.70599800;2023-04-10T04:00:45;27.67;;;15.40;;
5847;SDS011;8756;49.29324300;8.70599800;2023-04-10T04:03:11;24.20;;;13.40;;
5847;SDS011;8756;49.29324300;8.70599800;2023-04-10T04:05:36;24.53;;;14.33;;
5847;SDS011;8756;49.29324300;8.70599800;2023-04-10T04:08:02;27.17;;;14.77;;
5847;SDS011;8756;49.29324300;8.70599800;2023-04-10T04:10:30;23.50;;;12.90;;
5847;SDS011;8756;49.29324300;8.70599800;2023-04-10T04:12:57;27.23;;;15.70;;
5847;SDS011;8756;49.29324300;8.70599800;2023-04-10T04:15:22;24.40;;;14.90;;
5847;SDS011;8756;49.29324300;8.70599800;2023-04-10T04:17:48;21.60;;;13.20;;
5847;SDS011;8756;49.29324300;8.70599800;2023-04-10T04:20:14;27.23;;;14.17;;
5847;SDS011;8756;49.29324300;8.70599800;2023-04-10T04:22:40;24.17;;;14.00;;
5847;SDS011;8756;49.29324300;8.70599800;2023-04-10T04:25:06;29.37;;;15.30;;
5847;SDS011;8756;49.29324300;8.70599800;2023-04-10T04:27:34;22.60;;;12.80;;
5847;SDS011;8756;49.29324300;8.70599800;2023-04-10T04:30:01;24.60;;;13.70;;
5847;SDS011;8756;49.29324300;8.70599800;2023-04-10T04:32:28;26.07;;;13.87;;
5847;SDS011;8756;49.29324300;8.70599800;2023-04-10T04:34:53;25.27;;;14.30;;
5847;SDS011;8756;49.29324300;8.70599800;2023-04-10T04:37:19;26.03;;;15.10;;
5847;SDS011;8756;49.29324300;8.70599800;2023-04-10T04:39:44;24.60;;;13.90;;
5847;SDS011;8756;49.29324300;8.70599800;2023-04-10T04:42:10;25.80;;;15.13;;
5847;SDS011;8756;49.29324300;8.70599800;2023-04-10T04:44:36;25.33;;;14.27;;
5847;SDS011;8756;49.29324300;8.70599800;2023-04-10T04:47:01;24.40;;;13.60;;
5847;SDS011;8756;49.29324300;8.70599800;2023-04-10T04:49:27;24.77;;;14.27;;
5847;SDS011;8756;49.29324300;8.70599800;2023-04-10T04:51:53;24.00;;;13.60;;
5847;SDS011;8756;49.29324300;8.70599800;2023-04-10T04:54:18;25.73;;;14.83;;
5847;SDS011;8756;49.29324300;8.70599800;2023-04-10T04:56:44;23.47;;;13.47;;
5847;SDS011;8756;49.29324300;8.70599800;2023-04-10T04:59:09;23.17;;;14.67;;
5847;SDS011;8756;49.29324300;8.70599800;2023-04-10T05:01:35;26.63;;;14.57;;
5847;SDS011;8756;49.29324300;8.70599800;2023-04-10T05:04:01;25.93;;;14.20;;
5847;SDS011;8756;49.29324300;8.70599800;2023-04-10T05:06:29;22.17;;;14.87;;
5847;SDS011;8756;49.29324300;8.70599800;2023-04-10T05:08:55;23.03;;;14.27;;
5847;SDS011;8756;49.29324300;8.70599800;2023-04-10T05:11:21;23.23;;;13.87;;
5847;SDS011;8756;49.29324300;8.70599800;2023-04-10T05:13:47;23.90;;;14.00;;
5847;SDS011;8756;49.29324300;8.70599800;2023-04-10T05:16:12;23.47;;;13.57;;
5847;SDS011;8756;49.29324300;8.70599800;2023-04-10T05:18:38;24.13;;;14.83;;
5847;SDS011;8756;49.29324300;8.70599800;2023-04-10T05:21:05;23.10;;;12.40;;
5847;SDS011;8756;49.29324300;8.70599800;2023-04-10T05:23:31;24.47;;;14.43;;
5847;SDS011;8756;49.29324300;8.70599800;2023-04-10T05:25:56;22.50;;;13.57;;
5847;SDS011;8756;49.29324300;8.70599800;2023-04-10T05:28:22;25.07;;;13.80;;
5847;SDS011;8756;49.29324300;8.70599800;2023-04-10T05:30:48;26.73;;;14.70;;
5847;SDS011;8756;49.29324300;8.70599800;2023-04-10T05:33:13;28.13;;;13.50;;
5847;SDS011;8756;49.29324300;8.70599800;2023-04-10T05:35:39;26.20;;;13.20;;
5847;SDS011;8756;49.29324300;8.70599800;2023-04-10T05:38:05;25.97;;;13.63;;
5847;SDS011;8756;49.29324300;8.70599800;2023-04-10T05:40:30;27.17;;;13.50;;
5847;SDS011;8756;49.29324300;8.70599800;2023-04-10T05:42:56;24.93;;;13.67;;
5847;SDS011;8756;49.29324300;8.70599800;2023-04-10T05:45:21;26.93;;;14.50;;
5847;SDS011;8756;49.29324300;8.70599800;2023-04-10T05:47:47;24.33;;;13.50;;
5847;SDS011;8756;49.29324300;8.70599800;2023-04-10T05:50:13;26.80;;;14.03;;
5847;SDS011;8756;49.29324300;8.70599800;2023-04-10T05:52:39;27.10;;;14.73;;
5847;SDS011;8756;49.29324300;8.70599800;2023-04-10T05:55:05;27.50;;;14.50;;
5847;SDS011;8756;49.29324300;8.70599800;2023-04-10T05:57:31;24.30;;;14.13;;
5847;SDS011;8756;49.29324300;8.70599800;2023-04-10T05:59:57;27.23;;;13.90;;
5847;SDS011;8756;49.29324300;8.70599800;2023-04-10T06:02:22;22.80;;;13.27;;
5847;SDS011;8756;49.29324300;8.70599800;2023-04-10T06:04:48;24.90;;;13.63;;
5847;SDS011;8756;49.29324300;8.70599800;2023-04-10T06:07:15;27.43;;;14.97;;
5847;SDS011;8756;49.29324300;8.70599800;2023-04-10T06:09:40;26.80;;;14.53;;
5847;SDS011;8756;49.29324300;8.70599800;2023-04-10T06:12:06;25.20;;;13.13;;
5847;SDS011;8756;49.29324300;8.70599800;2023-04-10T06:14:32;23.83;;;13.97;;
5847;SDS011;8756;49.29324300;8.70599800;2023-04-10T06:16:59;28.43;;;13.40;;
5847;SDS011;8756;49.29324300;8.70599800;2023-04-10T06:19:24;23.80;;;15.20;;
5847;SDS011;8756;49.29324300;8.70599800;2023-04-10T06:21:50;23.60;;;13.53;;
5847;SDS011;8756;49.29324300;8.70599800;2023-04-10T06:24:16;25.87;;;14.53;;
5847;SDS011;8756;49.29324300;8.70599800;2023-04-10T06:26:41;25.17;;;13.50;;
5847;SDS011;8756;49.29324300;8.70599800;2023-04-10T06:29:07;22.90;;;13.10;;
5847;SDS011;8756;49.29324300;8.70599800;2023-04-10T06:31:33;26.17;;;14.87;;
5847;SDS011;8756;49.29324300;8.70599800;2023-04-10T06:33:58;23.37;;;13.27;;
5847;SDS011;8756;49.29324300;8.70599800;2023-04-10T06:36:24;24.90;;;14.57;;
5847;SDS011;8756;49.29324300;8.70599800;2023-04-10T06:38:51;24.80;;;13.77;;
5847;SDS011;8756;49.29324300;8.70599800;2023-04-10T06:41:16;24.73;;;13.40;;
5847;SDS011;8756;49.29324300;8.70599800;2023-04-10T06:43:42;24.47;;;13.47;;
5847;SDS011;8756;49.29324300;8.70599800;2023-04-10T06:46:09;22.63;;;13.87;;
5847;SDS011;8756;49.29324300;8.70599800;2023-04-10T06:48:35;23.33;;;12.80;;
5847;SDS011;8756;49.29324300;8.70599800;2023-04-10T06:51:01;24.27;;;13.50;;
5847;SDS011;8756;49.29324300;8.70599800;2023-04-10T06:53:26;23.50;;;12.77;;
5847;SDS011;8756;49.29324300;8.70599800;2023-04-10T06:55:52;25.40;;;13.90;;
5847;SDS011;8756;49.29324300;8.70599800;2023-04-10T06:58:18;25.10;;;13.20;;
5847;SDS011;8756;49.29324300;8.70599800;2023-04-10T07:00:44;24.27;;;14.13;;
5847;SDS011;8756;49.29324300;8.70599800;2023-04-10T07:03:10;23.70;;;12.40;;
5847;SDS011;8756;49.29324300;8.70599800;2023-04-10T07:05:36;23.30;;;12.30;;
5847;SDS011;8756;49.29324300;8.70599800;2023-04-10T07:08:01;21.17;;;12.30;;
5847;SDS011;8756;49.29324300;8.70599800;2023-04-10T07:10:27;23.50;;;12.00;;
5847;SDS011;8756;49.29324300;8.70599800;2023-04-10T07:12:53;21.73;;;11.60;;
5847;SDS011;8756;49.29324300;8.70599800;2023-04-10T07:15:18;23.60;;;12.80;;
5847;SDS011;8756;49.29324300;8.70599800;2023-04-10T07:17:46;23.83;;;11.60;;
5847;SDS011;8756;49.29324300;8.70599800;2023-04-10T07:20:12;23.33;;;13.20;;
5847;SDS011;8756;49.29324300;8.70599800;2023-04-10T07:22:37;22.03;;;12.93;;
5847;SDS011;8756;49.29324300;8.70599800;2023-04-10T07:25:03;22.00;;;12.13;;
5847;SDS011;8756;49.29324300;8.70599800;2023-04-10T07:27:31;22.90;;;13.20;;
5847;SDS011;8756;49.29324300;8.70599800;2023-04-10T07:29:56;25.43;;;13.43;;
5847;SDS011;8756;49.29324300;8.70599800;2023-04-10T07:32:22;21.23;;;11.50;;
5847;SDS011;8756;49.29324300;8.70599800;2023-04-10T07:34:48;20.80;;;11.60;;
5847;SDS011;8756;49.29324300;8.70599800;2023-04-10T07:37:14;21.63;;;11.63;;
5847;SDS011;8756;49.29324300;8.70599800;2023-04-10T07:39:40;20.97;;;12.17;;
5847;SDS011;8756;49.29324300;8.70599800;2023-04-10T07:42:06;20.10;;;11.60;;
5847;SDS011;8756;49.29324300;8.70599800;2023-04-10T07:44:31;20.80;;;12.27;;
5847;SDS011;8756;49.29324300;8.70599800;2023-04-10T07:46:57;23.20;;;12.37;;
5847;SDS011;8756;49.29324300;8.70599800;2023-04-10T07:49:23;21.97;;;11.50;;
5847;SDS011;8756;49.29324300;8.70599800;2023-04-10T07:51:48;22.10;;;11.53;;
5847;SDS011;8756;49.29324300;8.70599800;2023-04-10T07:54:14;22.00;;;9.70;;
5847;SDS011;8756;49.29324300;8.70599800;2023-04-10T07:56:40;19.33;;;10.10;;
5847;SDS011;8756;49.29324300;8.70599800;2023-04-10T07:59:05;18.57;;;10.57;;
5847;SDS011;8756;49.29324300;8.70599800;2023-04-10T08:01:32;22.57;;;10.47;;
5847;SDS011;8756;49.29324300;8.70599800;2023-04-10T08:03:58;19.47;;;10.70;;
5847;SDS011;8756;49.29324300;8.70599800;2023-04-10T08:06:23;20.60;;;10.70;;
5847;SDS011;8756;49.29324300;8.70599800;2023-04-10T08:08:49;18.50;;;9.73;;
5847;SDS011;8756;49.29324300;8.70599800;2023-04-10T08:13:54;19.70;;;10.43;;
5847;SDS011;8756;49.29324300;8.70599800;2023-04-10T08:16:28;20.37;;;9.73;;
5847;SDS011;8756;49.29324300;8.70599800;2023-04-10T08:18:56;16.67;;;9.40;;
5847;SDS011;8756;49.29324300;8.70599800;2023-04-10T08:21:23;18.43;;;9.20;;
5847;SDS011;8756;49.29324300;8.70599800;2023-04-10T08:23:55;18.83;;;8.97;;
5847;SDS011;8756;49.29324300;8.70599800;2023-04-10T08:26:22;17.10;;;9.67;;
5847;SDS011;8756;49.29324300;8.70599800;2023-04-10T08:28:51;16.60;;;8.80;;
5847;SDS011;8756;49.29324300;8.70599800;2023-04-10T08:31:20;17.00;;;9.83;;
5847;SDS011;8756;49.29324300;8.70599800;2023-04-10T08:33:47;19.13;;;9.67;;
5847;SDS011;8756;49.29324300;8.70599800;2023-04-10T08:36:14;19.87;;;10.00;;
5847;SDS011;8756;49.29324300;8.70599800;2023-04-10T08:38:40;17.83;;;8.87;;
5847;SDS011;8756;49.29324300;8.70599800;2023-04-10T08:41:10;17.57;;;10.10;;
5847;SDS011;8756;49.29324300;8.70599800;2023-04-10T08:43:38;18.63;;;9.73;;
5847;SDS011;8756;49.29324300;8.70599800;2023-04-10T08:46:04;18.40;;;9.10;;
5847;SDS011;8756;49.29324300;8.70599800;2023-04-10T08:48:31;20.30;;;9.27;;
5847;SDS011;8756;49.29324300;8.70599800;2023-04-10T08:51:21;19.77;;;10.27;;
5847;SDS011;8756;49.29324300;8.70599800;2023-04-10T08:53:57;16.67;;;8.93;;
5847;SDS011;8756;49.29324300;8.70599800;2023-04-10T08:56:30;16.03;;;8.20;;
5847;SDS011;8756;49.29324300;8.70599800;2023-04-10T08:58:58;16.10;;;8.17;;
5847;SDS011;8756;49.29324300;8.70599800;2023-04-10T09:01:25;16.60;;;8.60;;
5847;SDS011;8756;49.29324300;8.70599800;2023-04-10T09:03:51;17.60;;;7.20;;
5847;SDS011;8756;49.29324300;8.70599800;2023-04-10T09:06:17;13.93;;;6.97;;
5847;SDS011;8756;49.29324300;8.70599800;2023-04-10T09:08:42;15.93;;;7.00;;
5847;SDS011;8756;49.29324300;8.70599800;2023-04-10T09:11:08;15.00;;;6.50;;
5847;SDS011;8756;49.29324300;8.70599800;2023-04-10T09:16:04;14.97;;;6.90;;
5847;SDS011;8756;49.29324300;8.70599800;2023-04-10T09:18:45;14.30;;;6.47;;
5847;SDS011;8756;49.29324300;8.70599800;2023-04-10T09:21:18;14.63;;;6.43;;
5847;SDS011;8756;49.29324300;8.70599800;2023-04-10T09:23:46;16.67;;;7.63;;
5847;SDS011;8756;49.29324300;8.70599800;2023-04-10T09:26:27;13.60;;;6.23;;
5847;SDS011;8756;49.29324300;8.70599800;2023-04-10T09:28:58;16.53;;;7.23;;
5847;SDS011;8756;49.29324300;8.70599800;2023-04-10T09:34:17;14.47;;;6.60;;
5847;SDS011;8756;49.29324300;8.70599800;2023-04-10T09:36:53;14.30;;;7.03;;
5847;SDS011;8756;49.29324300;8.70599800;2023-04-10T09:39:33;16.97;;;7.53;;
5847;SDS011;8756;49.29324300;8.70599800;2023-04-10T09:42:07;14.10;;;6.30;;
5847;SDS011;8756;49.29324300;8.70599800;2023-04-10T09:44:35;13.47;;;6.50;;
5847;SDS011;8756;49.29324300;8.70599800;2023-04-10T09:49:50;15.50;;;6.60;;
5847;SDS011;8756;49.29324300;8.70599800;2023-04-10T09:54:54;13.10;;;6.17;;
5847;SDS011;8756;49.29324300;8.70599800;2023-04-10T09:57:22;13.47;;;5.87;;
5847;SDS011;8756;49.29324300;8.70599800;2023-04-10T09:59:53;16.27;;;6.83;;
5847;SDS011;8756;49.29324300;8.70599800;2023-04-10T10:02:22;13.37;;;6.50;;
5847;SDS011;8756;49.29324300;8.70599800;2023-04-10T10:04:49;13.80;;;6.33;;
5847;SDS011;8756;49.29324300;8.70599800;2023-04-10T10:07:17;14.33;;;6.50;;
5847;SDS011;8756;49.29324300;8.70599800;2023-04-10T10:09:45;15.20;;;6.40;;
5847;SDS011;8756;49.29324300;8.70599800;2023-04-10T10:12:16;13.97;;;6.50;;
5847;SDS011;8756;49.29324300;8.70599800;2023-04-10T10:14:51;13.90;;;5.90;;
5847;SDS011;8756;49.29324300;8.70599800;2023-04-10T10:17:27;13.63;;;6.10;;
5847;SDS011;8756;49.29324300;8.70599800;2023-04-10T10:20:04;15.03;;;6.20;;
5847;SDS011;8756;49.29324300;8.70599800;2023-04-10T10:22:35;14.17;;;6.40;;
5847;SDS011;8756;49.29324300;8.70599800;2023-04-10T10:25:02;13.33;;;5.30;;
5847;SDS011;8756;49.29324300;8.70599800;2023-04-10T10:27:29;13.37;;;5.87;;
5847;SDS011;8756;49.29324300;8.70599800;2023-04-10T10:29:56;13.30;;;5.23;;
5847;SDS011;8756;49.29324300;8.70599800;2023-04-10T10:32:25;13.17;;;6.10;;
5847;SDS011;8756;49.29324300;8.70599800;2023-04-10T10:34:52;12.00;;;5.20;;
5847;SDS011;8756;49.29324300;8.70599800;2023-04-10T10:37:21;13.00;;;5.50;;
5847;SDS011;8756;49.29324300;8.70599800;2023-04-10T10:42:40;14.37;;;5.60;;
5847;SDS011;8756;49.29324300;8.70599800;2023-04-10T10:48:02;12.40;;;5.70;;
5847;SDS011;8756;49.29324300;8.70599800;2023-04-10T10:53:44;13.37;;;6.13;;
5847;SDS011;8756;49.29324300;8.70599800;2023-04-10T10:58:45;13.37;;;6.20;;
5847;SDS011;8756;49.29324300;8.70599800;2023-04-10T11:01:12;14.33;;;5.80;;
5847;SDS011;8756;49.29324300;8.70599800;2023-04-10T11:03:38;13.63;;;6.07;;
5847;SDS011;8756;49.29324300;8.70599800;2023-04-10T11:06:07;13.20;;;5.53;;
5847;SDS011;8756;49.29324300;8.70599800;2023-04-10T11:11:17;12.73;;;5.50;;
5847;SDS011;8756;49.29324300;8.70599800;2023-04-10T11:16:17;13.37;;;5.30;;
5847;SDS011;8756;49.29324300;8.70599800;2023-04-10T11:21:16;11.97;;;4.90;;
5847;SDS011;8756;49.29324300;8.70599800;2023-04-10T11:32:01;12.10;;;5.20;;
5847;SDS011;8756;49.29324300;8.70599800;2023-04-10T11:34:28;12.20;;;4.93;;
5847;SDS011;8756;49.29324300;8.70599800;2023-04-10T11:36:58;12.57;;;5.40;;
5847;SDS011;8756;49.29324300;8.70599800;2023-04-10T11:39:26;12.00;;;5.23;;
5847;SDS011;8756;49.29324300;8.70599800;2023-04-10T11:41:53;12.00;;;4.73;;
5847;SDS011;8756;49.29324300;8.70599800;2023-04-10T11:46:55;11.30;;;4.07;;
5847;SDS011;8756;49.29324300;8.70599800;2023-04-10T11:49:23;12.97;;;5.20;;
5847;SDS011;8756;49.29324300;8.70599800;2023-04-10T11:51:50;13.30;;;4.90;;
5847;SDS011;8756;49.29324300;8.70599800;2023-04-10T11:54:20;11.43;;;3.70;;
5847;SDS011;8756;49.29324300;8.70599800;2023-04-10T11:56:55;12.70;;;4.67;;
5847;SDS011;8756;49.29324300;8.70599800;2023-04-10T11:59:31;12.00;;;4.67;;
5847;SDS011;8756;49.29324300;8.70599800;2023-04-10T12:02:10;19.80;;;13.30;;
5847;SDS011;8756;49.29324300;8.70599800;2023-04-10T12:04:38;13.20;;;5.90;;
5847;SDS011;8756;49.29324300;8.70599800;2023-04-10T12:07:05;19.63;;;11.23;;
5847;SDS011;8756;49.29324300;8.70599800;2023-04-10T12:09:32;13.50;;;5.53;;
5847;SDS011;8756;49.29324300;8.70599800;2023-04-10T12:12:01;12.43;;;5.03;;
5847;SDS011;8756;49.29324300;8.70599800;2023-04-10T12:16:57;11.97;;;4.37;;
5847;SDS011;8756;49.29324300;8.70599800;2023-04-10T12:19:24;11.67;;;4.47;;
5847;SDS011;8756;49.29324300;8.70599800;2023-04-10T12:21:50;10.80;;;3.70;;
5847;SDS011;8756;49.29324300;8.70599800;2023-04-10T12:27:24;11.77;;;4.90;;
5847;SDS011;8756;49.29324300;8.70599800;2023-04-10T12:29:52;11.30;;;4.03;;
5847;SDS011;8756;49.29324300;8.70599800;2023-04-10T12:32:20;10.90;;;4.10;;
5847;SDS011;8756;49.29324300;8.70599800;2023-04-10T12:34:49;11.70;;;4.00;;
5847;SDS011;8756;49.29324300;8.70599800;2023-04-10T12:37:25;10.80;;;3.93;;
5847;SDS011;8756;49.29324300;8.70599800;2023-04-10T12:40:14;11.50;;;4.20;;
5847;SDS011;8756;49.29324300;8.70599800;2023-04-10T12:42:41;11.33;;;4.30;;
5847;SDS011;8756;49.29324300;8.70599800;2023-04-10T12:45:07;12.23;;;3.97;;
5847;SDS011;8756;49.29324300;8.70599800;2023-04-10T12:47:44;11.60;;;4.20;;
5847;SDS011;8756;49.29324300;8.70599800;2023-04-10T12:50:16;12.87;;;5.50;;
5847;SDS011;8756;49.29324300;8.70599800;2023-04-10T12:52:43;12.73;;;5.53;;
5847;SDS011;8756;49.29324300;8.70599800;2023-04-10T12:55:11;10.40;;;3.90;;
5847;SDS011;8756;49.29324300;8.70599800;2023-04-10T12:57:45;11.63;;;4.20;;
5847;SDS011;8756;49.29324300;8.70599800;2023-04-10T13:00:13;11.07;;;3.57;;
5847;SDS011;8756;49.29324300;8.70599800;2023-04-10T13:02:42;10.93;;;3.73;;
5847;SDS011;8756;49.29324300;8.70599800;2023-04-10T13:05:09;11.40;;;4.50;;
5847;SDS011;8756;49.29324300;8.70599800;2023-04-10T13:07:35;14.20;;;4.33;;
5847;SDS011;8756;49.29324300;8.70599800;2023-04-10T13:10:02;10.73;;;3.50;;
5847;SDS011;8756;49.29324300;8.70599800;2023-04-10T13:12:29;11.53;;;4.20;;
5847;SDS011;8756;49.29324300;8.70599800;2023-04-10T13:14:55;14.30;;;5.90;;
5847;SDS011;8756;49.29324300;8.70599800;2023-04-10T13:17:21;18.03;;;7.87;;
5847;SDS011;8756;49.29324300;8.70599800;2023-04-10T13:19:48;12.13;;;4.60;;
5847;SDS011;8756;49.29324300;8.70599800;2023-04-10T13:22:14;28.27;;;13.47;;
5847;SDS011;8756;49.29324300;8.70599800;2023-04-10T13:24:40;63.50;;;34.33;;
5847;SDS011;8756;49.29324300;8.70599800;2023-04-10T13:27:06;12.87;;;4.83;;
5847;SDS011;8756;49.29324300;8.70599800;2023-04-10T13:29:33;12.50;;;4.03;;
5847;SDS011;8756;49.29324300;8.70599800;2023-04-10T13:32:03;15.63;;;7.37;;
5847;SDS011;8756;49.29324300;8.70599800;2023-04-10T13:34:33;10.97;;;3.77;;
5847;SDS011;8756;49.29324300;8.70599800;2023-04-10T13:36:59;11.07;;;4.00;;
5847;SDS011;8756;49.29324300;8.70599800;2023-04-10T13:39:29;10.97;;;4.10;;
5847;SDS011;8756;49.29324300;8.70599800;2023-04-10T13:41:55;13.10;;;4.57;;
5847;SDS011;8756;49.29324300;8.70599800;2023-04-10T13:44:22;12.57;;;4.30;;
5847;SDS011;8756;49.29324300;8.70599800;2023-04-10T13:46:48;12.50;;;4.57;;
5847;SDS011;8756;49.29324300;8.70599800;2023-04-10T13:49:13;10.83;;;3.60;;
5847;SDS011;8756;49.29324300;8.70599800;2023-04-10T13:51:41;12.00;;;3.67;;
5847;SDS011;8756;49.29324300;8.70599800;2023-04-10T13:54:08;10.10;;;3.10;;